AirNav   Duncan Aviation - Near you to keep you flying
 
 1354 users online  

NV35 Hudson Airport
Austin, Nevada, USA

GOING TO AUSTIN?


FAA INFORMATION EFFECTIVE 04 NOVEMBER 2021

Location

FAA Identifier: NV35
Lat/Long: 39-32-39.7140N 117-45-02.4160W
39-32.661900N 117-45.040267W
39.5443650,-117.7506711
(estimated)
Elevation: 5180 ft. / 1579 m (estimated)
Variation: 16E (1985)
From city: 27 miles W of AUSTIN, NV
Time zone: UTC -7 (UTC -8 during Standard Time)
Zip code: 89406

Airport Operations

Airport use: Private use. Permission required prior to landing
Activation date: 07/1966
Control tower: no
ARTCC: OAKLAND CENTER
FSS: RENO FLIGHT SERVICE STATION
Attendance: UNATNDD
Wind indicator: no
Segmented circle: no

Airport Services

Airframe service: NONE
Powerplant service: NONE

Runway Information

Runway 17/35

Dimensions: 5050 x 100 ft. / 1539 x 30 m
Surface: dirt, in poor condition
RUNWAY 17  RUNWAY 35
Traffic pattern: leftleft
Obstructions: none60 ft. pline, marked, 1200 ft. from runway, 20:1 slope to clear

Airport Ownership and Management from official FAA records

Ownership: Privately-owned
Owner: HUDSON OIL CO, INC
KANSAS CITY, KS 66103
Phone 913-362-4000
Manager: ROBERT PHILLIPS

Additional Remarks

FOR CD CTC OAKLAND ARTCC AT 510-745-3380.

Instrument Procedures

There are no published instrument procedures at NV35.

Some nearby airports with instrument procedures:

KNFL - Fallon Naval Air Station (Van Voorhis Field) Airport (45 nm W)
KFLX - Fallon Municipal Airport (46 nm W)
KLOL - Derby Field Airport (49 nm NW)
KSPZ - Silver Springs Airport (70 nm W)
KHTH - Hawthorne Industrial Airport (73 nm SW)
 
Loc | Ops | Rwys | IFR | FBO | Links
Com | Nav | Svcs | Stats | Notes
Area around NV35 (Hudson Airport)
 
Road maps at: MapQuest Bing Google
 
Aerial photo
No photo
 
Sectional chart

 
Airport distance calculator
Flying to Hudson Airport? Find the distance to fly.

From to NV35

Sunrise and sunset
Times for 01-Dec-2021
 Local
(UTC-8)
 Zulu
(UTC)
Morning civil twilight06:2414:24
Sunrise06:5314:53
Sunset16:2700:27
Evening civil twilight16:5600:56

Current date and time
Zulu (UTC)  01-Dec-2021 22:17:15
Local (UTC-8)  01-Dec-2021 14:17:15
 
METAR
KTMT 
26nm E 
012150Z AUTO 36003KT 10SM CLR 15/M07 A3035 RMK AO2 T01451068
KNFL 
45nm W 
012156Z 06003KT 10SM SCT200 13/M04 A3033 RMK AO2 SLP228 T01331039
KLOL 
49nm NW 
012153Z AUTO 20004KT 10SM CLR 13/M02 A3033 RMK AO2 SLP283 T01331017
TAF
KNFL 
45nm W 
0115/0215 VRB06KT 9999 FEW200 QNH3025IN T13/0123Z TM04/0214Z FS30003
NOTAMs
Click for the latest NOTAMs
NOTAMs are issued by the DoD/FAA and will open in a separate window not controlled by AirNav.

 

 
 

Would you like to see your business listed on this page?

 If your business provides an interesting product or service to pilots, flight crews, aircraft, or users of the Hudson Airport, you should consider listing it here.  To start the listing process, click on the button below
 
Add a business
 

Other Pages about Hudson Airport

Update a link
 
Copyright © AirNav, LLC. All rights reserved. Privacy Policy  Contact